Time;durP1;ratioP1;P1;durP2;ratioP2;P2;SDS_P1;SDS_P2;PMS_P1;PMS_P2;Temp;Humidity;BMP_temperature;BMP_pressure;BME280_temperature;BME280_humidity;BME280_pressure;Samples;Min_cycle;Max_cycle;Signal;HPM_P1;HPM_P2
2022/09/09 00:01:11;;;;;;;7.97;5.45;;;;;;;20.50;66.43;100697.28;5038773;27;98951;-66
2022/09/09 00:03:51;;;;;;;6.20;5.28;;;;;;;20.59;66.09;100706.47;5037929;27;98637;-66
2022/09/09 00:06:22;;;;;;;6.05;5.45;;;;;;;20.54;66.04;100700.59;5031031;28;97046;-66
2022/09/09 00:09:01;;;;;;;6.55;5.25;;;;;;;20.59;65.98;100701.09;5032994;27;99100;-67
2022/09/09 00:11:36;;;;;;;5.80;5.13;;;;;;;20.58;65.52;100700.22;5031335;28;97991;-67
2022/09/09 00:14:09;;;;;;;5.78;5.28;;;;;;;20.34;66.46;100703.97;5032644;27;96916;-66
2022/09/09 00:16:39;;;;;;;5.50;5.00;;;;;;;20.42;66.06;100691.66;5032233;28;97566;-65
2022/09/09 00:19:13;;;;;;;8.02;5.95;;;;;;;20.59;65.32;100693.03;5028611;27;99287;-67
2022/09/09 00:21:47;;;;;;;6.18;5.57;;;;;;;20.50;65.67;100696.44;5029492;28;99127;-66
2022/09/09 00:24:27;;;;;;;6.22;5.57;;;;;;;20.25;66.53;100692.94;5030890;27;96689;-66
2022/09/09 00:27:00;;;;;;;8.20;5.60;;;;;;;20.23;66.98;100697.53;5032458;27;96797;-67
2022/09/09 00:29:32;;;;;;;8.35;5.55;;;;;;;20.20;66.97;100692.44;5030597;28;99766;-67
2022/09/09 00:32:12;;;;;;;7.93;5.88;;;;;;;20.23;66.85;100691.31;5031733;28;98879;-67
2022/09/09 00:34:47;;;;;;;8.63;5.80;;;;;;;20.21;66.73;100686.09;5034035;27;97019;-67
2022/09/09 00:37:14;;;;;;;11.13;6.40;;;;;;;20.23;66.62;100689.50;5030010;27;98167;-67
2022/09/09 00:39:46;;;;;;;6.70;5.53;;;;;;;20.16;66.95;100687.38;5031201;27;98710;-67
2022/09/09 00:42:15;;;;;;;7.43;5.85;;;;;;;20.20;66.54;100683.53;5039533;27;99368;-66
2022/09/09 00:44:54;;;;;;;6.00;5.38;;;;;;;20.30;66.23;100684.50;5026061;28;98632;-66
2022/09/09 00:47:51;;;;;;;6.63;5.85;;;;;;;20.29;66.43;100682.78;5024295;28;98401;-66
2022/09/09 00:50:40;;;;;;;7.93;5.70;;;;;;;20.15;66.57;100685.72;4953455;28;97478;-66
2022/09/09 00:53:20;;;;;;;6.65;5.93;;;;;;;20.06;66.58;100687.25;5019549;27;99803;-67
2022/09/09 00:55:55;;;;;;;7.53;5.78;;;;;;;20.24;66.06;100691.22;5038343;27;96819;-67
2022/09/09 00:58:23;;;;;;;6.65;5.07;;;;;;;20.37;65.75;100690.28;5027999;27;96968;-67
2022/09/09 01:01:01;;;;;;;6.88;5.72;;;;;;;20.29;65.64;100691.69;5034451;27;99231;-67
2022/09/09 01:03:35;;;;;;;6.32;5.72;;;;;;;20.24;65.84;100688.53;5033087;27;98945;-66
2022/09/09 01:06:12;;;;;;;6.82;6.10;;;;;;;20.15;66.03;100691.06;5030631;28;96834;-66
2022/09/09 01:08:52;;;;;;;7.35;6.47;;;;;;;20.03;66.78;100694.66;5031798;27;97188;-67
2022/09/09 01:11:25;;;;;;;9.45;5.50;;;;;;;19.96;66.90;100701.44;5028174;27;99291;-67
2022/09/09 01:14:00;;;;;;;7.18;6.32;;;;;;;19.61;68.16;100702.28;5030473;27;98808;-67
2022/09/09 01:16:29;;;;;;;7.57;6.40;;;;;;;19.79;67.44;100700.91;5025467;27;97074;-67
2022/09/09 01:18:58;;;;;;;8.60;6.65;;;;;;;19.76;67.45;100701.13;5037580;27;96760;-66
2022/09/09 01:21:33;;;;;;;7.53;6.57;;;;;;;19.54;67.83;100689.44;5029922;27;98970;-66
2022/09/09 01:24:16;;;;;;;8.18;7.00;;;;;;;19.85;67.36;100695.09;5024501;27;98121;-66
2022/09/09 01:26:46;;;;;;;11.43;7.18;;;;;;;19.97;66.82;100698.66;5037348;27;96805;-66
2022/09/09 01:29:16;;;;;;;8.95;6.75;;;;;;;19.96;66.21;100696.09;5029544;27;98540;-66
2022/09/09 01:31:52;;;;;;;7.63;6.80;;;;;;;19.45;67.73;100691.78;5028526;27;99442;-67
2022/09/09 01:34:19;;;;;;;7.35;6.65;;;;;;;19.79;66.81;100692.00;5030762;28;96759;-67
2022/09/09 01:36:52;;;;;;;10.20;7.13;;;;;;;19.61;67.24;100688.88;5027443;28;96811;-67
2022/09/09 01:39:21;;;;;;;10.25;6.60;;;;;;;19.86;66.52;100693.25;5031310;28;97124;-67
2022/09/09 01:41:52;;;;;;;7.55;6.85;;;;;;;19.72;66.70;100693.44;5030482;27;101196;-68
2022/09/09 01:44:22;;;;;;;9.82;6.47;;;;;;;19.74;66.66;100691.50;5029128;27;98820;-68
2022/09/09 01:46:49;;;;;;;7.57;6.70;;;;;;;19.59;67.07;100690.81;5031796;27;98497;-68
2022/09/09 01:49:19;;;;;;;9.13;7.10;;;;;;;19.52;67.37;100700.25;5030681;27;97298;-68
2022/09/09 01:51:49;;;;;;;7.10;6.40;;;;;;;19.36;67.55;100697.78;5031228;27;101083;-68
2022/09/09 01:54:15;;;;;;;6.70;6.10;;;;;;;19.58;67.28;100694.44;5031299;28;99248;-68
2022/09/09 01:56:57;;;;;;;7.03;6.35;;;;;;;19.60;67.13;100687.16;5030097;27;96795;-68
2022/09/09 01:59:46;;;;;;;7.45;6.68;;;;;;;19.62;66.76;100687.06;5031092;27;96790;-67
2022/09/09 02:02:20;;;;;;;8.48;6.43;;;;;;;19.59;66.54;100687.25;5033231;27;99432;-68
2022/09/09 02:04:50;;;;;;;6.93;6.22;;;;;;;19.72;66.25;100688.91;5032668;27;98964;-68
2022/09/09 02:07:41;;;;;;;9.43;7.03;;;;;;;19.78;66.05;100695.66;5038915;27;96778;-68
2022/09/09 02:10:12;;;;;;;7.72;6.95;;;;;;;19.78;65.62;100692.97;5025678;27;96939;-67
2022/09/09 02:12:45;;;;;;;7.32;6.63;;;;;;;19.61;66.61;100686.19;5029544;27;99102;-66
2022/09/09 02:15:19;;;;;;;7.30;6.60;;;;;;;19.59;66.24;100697.97;5030506;27;96883;-67
2022/09/09 02:17:47;;;;;;;8.45;6.88;;;;;;;19.61;66.08;100690.69;5030053;27;98369;-67
2022/09/09 02:20:18;;;;;;;9.63;6.63;;;;;;;19.48;66.30;100707.69;5033585;27;97334;-66
2022/09/09 02:22:46;;;;;;;8.30;6.03;;;;;;;19.17;67.11;100707.28;5032001;27;98946;-67
2022/09/09 02:25:16;;;;;;;7.55;6.80;;;;;;;19.44;66.86;100703.47;5028589;28;98823;-67
2022/09/09 02:27:46;;;;;;;7.97;6.75;;;;;;;19.47;66.23;100705.97;5031967;27;96851;-67
2022/09/09 02:30:14;;;;;;;8.48;6.78;;;;;;;19.66;65.83;100709.97;5028451;27;96864;-68
2022/09/09 02:32:46;;;;;;;7.95;6.63;;;;;;;19.50;66.52;100700.34;5038795;27;99500;-68
2022/09/09 02:35:15;;;;;;;6.78;6.07;;;;;;;19.61;65.97;100701.41;5027591;27;98923;-67
2022/09/09 02:37:45;;;;;;;9.25;6.72;;;;;;;19.42;66.31;100696.50;5035701;27;97079;-66
2022/09/09 02:40:15;;;;;;;10.13;6.57;;;;;;;19.53;65.52;100696.63;5027484;27;98765;-67
2022/09/09 02:42:41;;;;;;;7.47;6.68;;;;;;;19.52;65.81;100697.56;5031691;27;100722;-67
2022/09/09 02:45:12;;;;;;;7.10;6.40;;;;;;;19.35;66.06;100697.94;5029407;28;96970;-68
2022/09/09 02:47:46;;;;;;;7.50;6.07;;;;;;;19.49;66.17;100692.47;5029949;27;97251;-68
2022/09/09 02:50:16;;;;;;;6.43;5.88;;;;;;;19.72;64.97;100699.66;5031432;27;97546;-67
2022/09/09 02:52:58;;;;;;;6.82;6.13;;;;;;;19.45;65.59;100697.13;5033682;27;100823;-66
2022/09/09 02:55:36;;;;;;;7.28;6.43;;;;;;;19.41;65.69;100701.03;5028062;28;98951;-67
2022/09/09 02:58:05;;;;;;;6.78;5.65;;;;;;;19.36;65.93;100708.50;5027954;27;96884;-66
2022/09/09 03:00:37;;;;;;;8.77;6.18;;;;;;;19.45;65.71;100697.13;5028265;27;97296;-67
2022/09/09 03:03:04;;;;;;;9.00;6.07;;;;;;;19.44;65.45;100694.56;5028370;27;99942;-66
2022/09/09 03:05:31;;;;;;;6.97;6.28;;;;;;;19.65;64.88;100693.03;5028726;28;98884;-67
2022/09/09 03:07:58;;;;;;;7.25;6.13;;;;;;;19.61;64.79;100701.41;5032963;27;97018;-67
2022/09/09 03:10:25;;;;;;;9.63;6.30;;;;;;;19.50;64.76;100703.03;5037865;27;97808;-67
2022/09/09 03:12:51;;;;;;;8.05;6.30;;;;;;;19.47;65.34;100705.97;5025717;27;98964;-68
2022/09/09 03:15:18;;;;;;;8.30;6.45;;;;;;;19.37;65.43;100704.88;5030933;27;102022;-66
2022/09/09 03:17:46;;;;;;;10.10;5.65;;;;;;;19.27;65.65;100713.69;5033580;27;96814;-67
2022/09/09 03:20:16;;;;;;;8.32;5.53;;;;;;;19.30;65.32;100717.00;5037316;27;96993;-67
2022/09/09 03:22:43;;;;;;;9.20;6.50;;;;;;;19.34;65.22;100714.97;5028197;27;99060;-68
2022/09/09 03:25:10;;;;;;;9.40;5.95;;;;;;;19.31;65.47;100732.09;5039668;27;98968;-66
2022/09/09 03:27:38;;;;;;;6.45;5.75;;;;;;;19.28;65.60;100732.34;5025694;27;97812;-67
2022/09/09 03:30:08;;;;;;;8.57;5.93;;;;;;;19.11;65.86;100719.28;5034595;27;97518;-66
2022/09/09 03:32:35;;;;;;;6.75;6.05;;;;;;;19.39;65.17;100727.06;5037465;27;99328;-67
2022/09/09 03:35:03;;;;;;;6.20;5.60;;;;;;;19.44;65.08;100724.03;5025487;27;98941;-66
2022/09/09 03:37:29;;;;;;;8.52;6.60;;;;;;;19.24;65.25;100729.97;5029592;27;96980;-68
2022/09/09 03:39:56;;;;;;;10.30;6.35;;;;;;;19.33;65.08;100726.66;5032468;28;97616;-67
2022/09/09 03:42:22;;;;;;;8.90;6.00;;;;;;;19.24;65.27;100720.13;5032312;27;99279;-68
2022/09/09 03:44:50;;;;;;;7.43;5.63;;;;;;;19.42;64.72;100726.84;5031665;27;98167;-67
2022/09/09 03:47:18;;;;;;;7.20;5.68;;;;;;;19.57;64.24;100732.06;5034259;27;97150;-66
2022/09/09 03:49:44;;;;;;;9.23;5.72;;;;;;;19.48;64.08;100729.13;5033219;27;96865;-67
2022/09/09 03:52:12;;;;;;;9.60;5.97;;;;;;;19.17;64.96;100728.69;5038858;27;101371;-68
2022/09/09 03:54:39;;;;;;;9.75;5.75;;;;;;;19.34;64.92;100734.56;5030026;27;99741;-68
2022/09/09 03:57:07;;;;;;;6.68;5.68;;;;;;;19.46;64.46;100731.03;5039563;27;96786;-67
2022/09/09 03:59:35;;;;;;;6.78;6.03;;;;;;;19.50;64.34;100731.66;5028656;27;99723;-67
2022/09/09 04:02:02;;;;;;;8.13;5.30;;;;;;;19.45;64.08;100731.13;5031276;27;99748;-67
2022/09/09 04:04:29;;;;;;;8.10;5.57;;;;;;;19.44;63.89;100724.91;5029381;27;98777;-66
2022/09/09 04:06:58;;;;;;;8.02;5.63;;;;;;;19.25;64.75;100727.19;5038536;27;97286;-66
2022/09/09 04:09:26;;;;;;;6.32;4.90;;;;;;;19.13;65.29;100725.41;5032775;27;96944;-66
2022/09/09 04:11:55;;;;;;;5.30;4.80;;;;;;;19.44;64.13;100721.34;5033406;28;99260;-67
2022/09/09 04:14:27;;;;;;;8.30;5.22;;;;;;;19.46;64.04;100719.47;5030412;28;98886;-67
2022/09/09 04:16:54;;;;;;;5.43;4.93;;;;;;;19.25;64.73;100718.28;5027681;27;96816;-66
2022/09/09 04:19:20;;;;;;;5.40;4.90;;;;;;;19.14;64.74;100724.44;5031794;27;97000;-68
2022/09/09 04:21:49;;;;;;;7.63;4.70;;;;;;;19.24;64.65;100720.13;5033154;28;99072;-67
2022/09/09 04:24:19;;;;;;;5.75;4.80;;;;;;;19.15;65.01;100720.78;5027625;28;98784;-68
2022/09/09 04:26:47;;;;;;;5.95;4.78;;;;;;;19.33;64.16;100724.81;5029256;27;96891;-68
2022/09/09 04:29:13;;;;;;;4.82;4.43;;;;;;;19.22;64.44;100721.22;5027704;28;98783;-67
2022/09/09 04:31:41;;;;;;;7.43;4.78;;;;;;;19.02;64.95;100731.53;5033420;28;99057;-67
2022/09/09 04:34:08;;;;;;;6.05;4.93;;;;;;;19.20;64.72;100733.84;5031848;28;98862;-68
2022/09/09 04:36:34;;;;;;;7.63;4.50;;;;;;;19.27;64.31;100730.63;5032137;28;96790;-68
2022/09/09 04:39:01;;;;;;;13.10;4.93;;;;;;;19.02;64.71;100741.38;5031098;28;96897;-67
2022/09/09 04:41:28;;;;;;;5.03;4.53;;;;;;;19.01;65.21;100739.66;5031032;27;99209;-67
2022/09/09 04:43:59;;;;;;;6.78;4.70;;;;;;;19.08;64.77;100739.13;5033458;27;99270;-67
2022/09/09 04:46:26;;;;;;;13.40;4.22;;;;;;;19.10;64.66;100744.34;5029523;28;97847;-67
2022/09/09 04:48:54;;;;;;;7.38;3.97;;;;;;;19.13;64.19;100749.50;5030963;27;96797;-66
2022/09/09 04:51:21;;;;;;;5.32;4.82;;;;;;;19.16;64.61;100738.59;5030853;27;99282;-68
2022/09/09 04:53:48;;;;;;;5.88;4.65;;;;;;;19.26;63.51;100742.31;5030053;28;99472;-68
2022/09/09 04:56:18;;;;;;;7.88;4.45;;;;;;;19.40;63.74;100758.25;5034433;28;97331;-67
2022/09/09 04:58:47;;;;;;;7.38;4.95;;;;;;;19.26;64.25;100754.84;5033589;27;96910;-66
2022/09/09 05:01:18;;;;;;;9.50;4.28;;;;;;;19.35;63.67;100756.88;5031891;28;99184;-67
2022/09/09 05:03:45;;;;;;;8.23;4.75;;;;;;;19.42;63.12;100758.16;5026572;28;99156;-67
2022/09/09 05:06:14;;;;;;;9.30;4.75;;;;;;;19.41;63.62;100753.75;5022906;28;96933;-67
2022/09/09 05:08:42;;;;;;;5.32;4.63;;;;;;;19.30;63.54;100762.53;5025758;27;96961;-67
2022/09/09 05:11:17;;;;;;;11.95;4.82;;;;;;;19.55;63.13;100768.88;5027102;27;100238;-67
2022/09/09 05:13:45;;;;;;;7.50;4.65;;;;;;;19.70;62.71;100771.28;5026167;27;99048;-67
2022/09/09 05:16:12;;;;;;;8.48;4.50;;;;;;;19.81;62.26;100763.31;5030146;28;98687;-67
2022/09/09 05:18:45;;;;;;;5.75;3.78;;;;;;;19.82;62.45;100764.19;5031903;28;98833;-67
2022/09/09 05:21:13;;;;;;;82.95;8.45;;;;;;;19.96;62.00;100760.44;5023995;27;99479;-66
2022/09/09 05:23:40;;;;;;;18.92;4.38;;;;;;;19.90;61.89;100756.41;5023790;28;98835;-67
2022/09/09 05:26:10;;;;;;;331.75;19.25;;;;;;;20.24;61.42;100760.09;5023422;28;98229;-67
2022/09/09 05:28:38;;;;;;;54.15;5.55;;;;;;;20.26;61.31;100752.81;5023356;28;96952;-67
2022/09/09 05:31:07;;;;;;;131.35;9.43;;;;;;;20.17;60.64;100754.34;5026769;27;99569;-66
2022/09/09 05:33:35;;;;;;;166.82;11.32;;;;;;;20.03;61.09;100756.34;5030085;27;98920;-68
2022/09/09 05:36:05;;;;;;;26.63;5.03;;;;;;;20.24;61.02;100760.97;5028800;27;97950;-67
2022/09/09 05:38:32;;;;;;;32.47;4.75;;;;;;;20.29;60.66;100756.09;5031322;27;96850;-67
2022/09/09 05:40:59;;;;;;;39.58;5.22;;;;;;;20.16;60.90;100762.50;5030469;27;99209;-67
2022/09/09 05:43:27;;;;;;;47.33;5.28;;;;;;;20.43;60.40;100760.47;5022925;27;99110;-67
2022/09/09 05:46:02;;;;;;;71.13;7.28;;;;;;;20.30;60.41;100757.81;5029132;28;97828;-68
2022/09/09 05:48:31;;;;;;;185.30;12.50;;;;;;;20.07;60.91;100758.72;5032629;27;97273;-68
2022/09/09 05:50:58;;;;;;;156.32;13.30;;;;;;;20.53;60.18;100760.63;5030903;28;97738;-66
2022/09/09 05:53:27;;;;;;;179.77;11.85;;;;;;;20.85;59.05;100761.69;5029893;27;96901;-67
2022/09/09 05:56:00;;;;;;;234.45;16.08;;;;;;;20.85;59.38;100766.19;5032255;28;97568;-67
2022/09/09 05:58:26;;;;;;;29.83;5.05;;;;;;;20.75;59.51;100768.72;5032297;28;97031;-66
2022/09/09 06:00:53;;;;;;;13.07;4.32;;;;;;;20.60;60.24;100770.78;5030532;27;101965;-67
2022/09/09 06:03:23;;;;;;;6.75;3.78;;;;;;;20.56;60.17;100771.13;5029631;28;99466;-67
2022/09/09 06:06:01;;;;;;;4.45;3.38;;;;;;;20.69;59.51;100772.75;5029474;27;96737;-67
2022/09/09 06:08:29;;;;;;;7.40;3.33;;;;;;;21.05;58.65;100773.53;5030151;27;97218;-67
2022/09/09 06:11:02;;;;;;;6.00;3.90;;;;;;;20.92;58.74;100781.72;5030981;27;99014;-67
2022/09/09 06:13:29;;;;;;;8.52;3.55;;;;;;;20.82;58.88;100786.06;5031608;28;99888;-68
2022/09/09 06:15:59;;;;;;;8.02;3.60;;;;;;;20.76;59.12;100786.53;5029388;27;98925;-67
2022/09/09 06:18:25;;;;;;;3.58;3.20;;;;;;;20.66;59.14;100785.56;5032093;27;98375;-68
2022/09/09 06:21:00;;;;;;;5.20;3.30;;;;;;;21.05;58.39;100790.53;5031031;28;97668;-68
2022/09/09 06:23:28;;;;;;;4.22;3.50;;;;;;;21.18;57.80;100781.53;5032150;28;98915;-68
2022/09/09 06:26:02;;;;;;;6.65;3.08;;;;;;;21.26;57.16;100782.63;5031951;28;96715;-68
2022/09/09 06:28:28;;;;;;;10.48;3.67;;;;;;;21.09;57.96;100783.91;5028509;28;98704;-69
2022/09/09 06:31:01;;;;;;;7.30;3.17;;;;;;;21.35;57.03;100781.88;5030810;27;99131;-68
2022/09/09 06:33:32;;;;;;;9.25;3.83;;;;;;;21.49;56.92;100786.16;5029867;27;98917;-68
2022/09/09 06:36:01;;;;;;;8.15;3.15;;;;;;;21.39;57.35;100788.75;5029451;27;96876;-68
2022/09/09 06:38:29;;;;;;;13.43;4.03;;;;;;;21.47;56.98;100791.66;5030768;27;97971;-66
2022/09/09 06:40:57;;;;;;;10.35;3.53;;;;;;;21.46;57.36;100799.88;5026542;27;99867;-67
2022/09/09 06:43:24;;;;;;;7.10;3.33;;;;;;;21.03;57.91;100803.22;5031945;28;99309;-66
2022/09/09 06:45:55;;;;;;;10.10;2.92;;;;;;;20.98;58.41;100800.03;5031759;27;98202;-67
2022/09/09 06:48:21;;;;;;;5.00;3.20;;;;;;;21.01;59.10;100799.78;5030530;28;96895;-67
2022/09/09 06:50:49;;;;;;;13.43;3.03;;;;;;;21.18;58.71;100797.66;5030279;27;98203;-67
2022/09/09 06:53:18;;;;;;;7.40;2.85;;;;;;;21.15;58.86;100798.69;5035052;28;99706;-67
2022/09/09 06:55:54;;;;;;;9.73;2.35;;;;;;;21.43;57.38;100800.94;5034626;28;96878;-68
2022/09/09 06:58:21;;;;;;;7.50;2.97;;;;;;;21.97;56.86;100804.72;5033521;28;98739;-68
2022/09/09 07:00:48;;;;;;;4.85;2.63;;;;;;;22.61;54.68;100790.28;5031910;27;98964;-68
2022/09/09 07:03:18;;;;;;;8.60;2.88;;;;;;;22.37;54.84;100783.44;5033711;27;99589;-67
2022/09/09 07:05:44;;;;;;;8.70;3.13;;;;;;;22.45;54.28;100789.03;5034688;27;97241;-68
2022/09/09 07:08:14;;;;;;;7.18;2.75;;;;;;;22.55;53.17;100787.25;5030249;27;99370;-68
2022/09/09 07:10:40;;;;;;;4.45;2.20;;;;;;;22.74;53.62;100791.97;5030519;27;99082;-67
2022/09/09 07:13:09;;;;;;;7.22;2.22;;;;;;;22.61;53.42;100790.28;5039287;27;99260;-67
2022/09/09 07:15:36;;;;;;;5.55;2.22;;;;;;;22.90;53.14;100797.75;5033922;28;96714;-67
2022/09/09 07:18:03;;;;;;;5.07;2.13;;;;;;;23.04;52.99;100798.25;5037994;27;96962;-67
2022/09/09 07:20:32;;;;;;;12.93;2.55;;;;;;;23.05;52.86;100799.09;5036272;27;101245;-67
2022/09/09 07:22:59;;;;;;;5.75;2.42;;;;;;;23.11;52.04;100793.16;5032687;27;99224;-67
2022/09/09 07:25:27;;;;;;;6.43;2.78;;;;;;;23.39;51.73;100794.31;5034385;28;97102;-69
2022/09/09 07:27:54;;;;;;;2.47;1.85;;;;;;;23.37;51.22;100797.13;5035295;28;96808;-68
2022/09/09 07:30:22;;;;;;;3.25;2.00;;;;;;;23.65;50.69;100795.59;5033000;28;98027;-68
2022/09/09 07:32:51;;;;;;;4.85;2.08;;;;;;;23.66;50.74;100791.91;5032123;27;99176;-68
2022/09/09 07:35:17;;;;;;;5.45;1.88;;;;;;;24.09;49.09;100801.53;5034716;27;96828;-69
2022/09/09 07:37:45;;;;;;;5.00;1.52;;;;;;;24.05;48.41;100797.38;5032311;27;97056;-67
2022/09/09 07:40:11;;;;;;;3.88;1.40;;;;;;;24.09;47.88;100799.66;5034953;28;99341;-68
2022/09/09 07:42:38;;;;;;;8.73;1.70;;;;;;;23.95;48.51;100805.47;5034180;27;97925;-68
2022/09/09 07:45:05;;;;;;;7.47;1.58;;;;;;;24.21;48.77;100805.84;5026746;27;98649;-68
2022/09/09 07:47:33;;;;;;;12.13;1.75;;;;;;;24.24;47.90;100805.53;5028177;28;96829;-68
2022/09/09 07:49:59;;;;;;;5.65;1.58;;;;;;;24.29;48.06;100808.66;5029469;28;98907;-68
2022/09/09 07:52:27;;;;;;;10.18;1.67;;;;;;;24.20;47.67;100802.28;5029898;27;97883;-70
2022/09/09 07:54:53;;;;;;;3.38;1.30;;;;;;;24.11;48.35;100804.94;5030698;28;97515;-68
2022/09/09 07:57:20;;;;;;;4.53;1.50;;;;;;;24.36;48.35;100803.56;5026021;28;96812;-67
2022/09/09 07:59:46;;;;;;;4.35;1.13;;;;;;;24.60;47.80;100804.84;5032167;27;99041;-68
2022/09/09 08:02:17;;;;;;;3.65;1.30;;;;;;;24.53;48.18;100809.13;5019739;27;99401;-67
2022/09/09 08:04:46;;;;;;;3.67;1.40;;;;;;;24.87;48.24;100817.63;5025305;27;102133;-68
2022/09/09 08:07:12;;;;;;;10.95;1.73;;;;;;;24.63;48.07;100809.97;5028413;27;97339;-69
2022/09/09 08:09:39;;;;;;;3.67;1.38;;;;;;;24.72;47.41;100813.66;5023510;27;98984;-67
2022/09/09 08:12:09;;;;;;;4.63;1.30;;;;;;;25.57;45.89;100819.06;5030484;27;99072;-68
2022/09/09 08:14:35;;;;;;;6.07;2.13;;;;;;;25.75;45.40;100811.84;5022529;28;97367;-67
2022/09/09 08:17:02;;;;;;;2.75;1.10;;;;;;;25.69;45.57;100830.53;5026608;28;97487;-68
2022/09/09 08:19:33;;;;;;;3.28;1.20;;;;;;;25.59;45.75;100822.47;5028101;27;99242;-68
2022/09/09 08:22:02;;;;;;;5.88;1.50;;;;;;;25.45;45.67;100820.22;5028023;27;98217;-68
2022/09/09 08:24:29;;;;;;;1.85;1.00;;;;;;;25.78;45.88;100832.34;5023877;27;97149;-67
2022/09/09 08:26:56;;;;;;;4.72;2.00;;;;;;;25.36;46.03;100823.78;5020730;27;97032;-68
2022/09/09 08:29:24;;;;;;;5.32;1.20;;;;;;;25.07;46.73;100821.19;5030840;27;100767;-67
2022/09/09 08:31:56;;;;;;;5.22;1.10;;;;;;;24.70;47.09;100822.91;5031744;27;99301;-67
2022/09/09 08:34:25;;;;;;;5.35;1.40;;;;;;;24.54;47.78;100818.94;5028927;28;97061;-68
2022/09/09 08:36:52;;;;;;;3.58;1.23;;;;;;;24.93;47.92;100827.03;5028005;28;96931;-67
2022/09/09 08:39:22;;;;;;;3.40;1.13;;;;;;;24.92;47.50;100833.44;5027336;28;99515;-67
2022/09/09 08:42:06;;;;;;;4.18;1.00;;;;;;;24.89;47.14;100825.56;5031291;27;98471;-67
2022/09/09 08:44:43;;;;;;;5.75;1.00;;;;;;;25.10;46.07;100831.69;5025471;28;97169;-69
2022/09/09 08:47:16;;;;;;;10.73;1.95;;;;;;;24.98;46.91;100830.16;5030416;28;97292;-68
2022/09/09 08:49:58;;;;;;;3.35;1.30;;;;;;;24.95;47.33;100828.59;5025113;28;98954;-67
2022/09/09 08:52:29;;;;;;;4.03;1.38;;;;;;;24.96;46.87;100834.84;5025837;28;98799;-68
2022/09/09 08:54:59;;;;;;;4.20;1.58;;;;;;;24.92;46.80;100837.00;5028294;28;96855;-67
2022/09/09 08:57:32;;;;;;;7.10;1.52;;;;;;;24.67;46.95;100834.84;5023592;28;97253;-67
2022/09/09 08:59:59;;;;;;;3.95;1.10;;;;;;;24.71;46.92;100830.88;5022637;27;99015;-67
2022/09/09 09:02:33;;;;;;;5.78;1.25;;;;;;;24.79;46.70;100831.00;5028951;27;98730;-67
2022/09/09 09:05:10;;;;;;;3.50;1.00;;;;;;;24.81;46.53;100831.69;5026859;27;97043;-68
2022/09/09 09:07:51;;;;;;;2.85;0.90;;;;;;;25.00;46.19;100830.88;5026245;28;96958;-67
2022/09/09 09:10:36;;;;;;;3.03;1.13;;;;;;;24.81;46.41;100831.69;5028553;27;98924;-67
2022/09/09 09:13:03;;;;;;;8.52;1.73;;;;;;;24.93;46.53;100835.16;5022806;28;97992;-67
2022/09/09 09:15:36;;;;;;;7.60;1.92;;;;;;;25.07;45.94;100839.25;5028450;27;96804;-67
2022/09/09 09:18:04;;;;;;;6.22;1.92;;;;;;;24.86;46.23;100839.41;5030480;27;97645;-67
2022/09/09 09:20:40;;;;;;;9.38;1.63;;;;;;;25.55;45.56;100847.22;5029352;27;99219;-67
2022/09/09 09:23:17;;;;;;;7.90;1.33;;;;;;;25.68;45.15;100842.34;5022294;28;99173;-67
2022/09/09 09:25:45;;;;;;;1.95;0.90;;;;;;;25.35;45.17;100838.31;5027480;28;97366;-67
2022/09/09 09:28:21;;;;;;;3.03;1.20;;;;;;;25.93;43.85;100830.81;5023422;27;97069;-67
2022/09/09 09:30:57;;;;;;;5.60;1.27;;;;;;;26.31;43.85;100828.94;5027366;28;99811;-68
2022/09/09 09:33:31;;;;;;;6.75;1.73;;;;;;;27.06;42.24;100830.28;5024827;28;98784;-68
2022/09/09 09:36:01;;;;;;;8.25;1.20;;;;;;;26.75;42.49;100825.28;5018820;27;96837;-67
2022/09/09 09:38:31;;;;;;;6.45;1.30;;;;;;;27.20;41.95;100822.41;5020000;28;98349;-67
2022/09/09 09:41:00;;;;;;;7.72;1.30;;;;;;;26.82;41.88;100829.06;5023025;28;98771;-67
2022/09/09 09:43:31;;;;;;;5.03;1.63;;;;;;;27.15;41.62;100824.75;5027375;27;99176;-67
2022/09/09 09:45:58;;;;;;;6.13;1.42;;;;;;;27.15;41.38;100827.47;5024776;27;96900;-67
2022/09/09 09:48:26;;;;;;;5.65;1.35;;;;;;;26.53;41.82;100832.00;5022964;27;97330;-68
2022/09/09 09:50:55;;;;;;;3.47;1.33;;;;;;;26.64;42.20;100830.09;5027139;27;97463;-70
2022/09/09 09:53:28;;;;;;;2.55;0.93;;;;;;;25.95;43.58;100827.97;5023959;27;97217;-70
2022/09/09 09:55:58;;;;;;;3.97;1.10;;;;;;;26.05;43.54;100824.22;5026630;27;96806;-70
2022/09/09 09:58:29;;;;;;;4.10;0.90;;;;;;;25.94;43.83;100815.44;5026379;27;97373;-68
2022/09/09 10:00:56;;;;;;;6.30;1.15;;;;;;;26.25;43.23;100824.97;5024890;27;99366;-67
2022/09/09 10:03:27;;;;;;;2.55;1.23;;;;;;;26.41;42.53;100825.13;5022205;27;98559;-67
2022/09/09 10:05:56;;;;;;;3.15;0.90;;;;;;;26.54;42.15;100824.72;5021958;27;97514;-67
2022/09/09 10:08:23;;;;;;;8.55;1.00;;;;;;;26.32;42.38;100819.81;5022647;27;98065;-67
2022/09/09 10:11:06;;;;;;;3.72;0.95;;;;;;;26.04;43.36;100818.94;5025092;27;101596;-68
2022/09/09 10:13:41;;;;;;;5.22;1.00;;;;;;;25.85;43.99;100828.03;5026781;27;98718;-68
2022/09/09 10:16:21;;;;;;;6.95;1.40;;;;;;;26.00;44.06;100829.22;5027216;27;97989;-68
2022/09/09 10:19:00;;;;;;;5.95;1.25;;;;;;;26.41;42.85;100822.41;5023871;28;97094;-67
2022/09/09 10:21:47;;;;;;;2.03;0.93;;;;;;;26.80;42.00;100822.94;5024203;27;99558;-67
2022/09/09 10:24:35;;;;;;;3.58;0.85;;;;;;;26.36;41.78;100832.00;5020489;27;98745;-67
2022/09/09 10:27:06;;;;;;;3.67;1.13;;;;;;;26.52;42.54;100829.44;5024683;27;97364;-67
2022/09/09 10:29:56;;;;;;;6.13;1.10;;;;;;;26.32;42.79;100827.94;5025055;27;97740;-68
2022/09/09 10:32:44;;;;;;;4.75;1.13;;;;;;;26.58;42.82;100832.38;5024393;27;98870;-67
2022/09/09 10:35:15;;;;;;;7.07;0.70;;;;;;;26.54;42.58;100824.72;5019451;27;98073;-68
2022/09/09 10:38:01;;;;;;;6.78;1.00;;;;;;;26.21;43.21;100834.38;5024611;27;97245;-68
2022/09/09 10:40:35;;;;;;;4.43;0.70;;;;;;;26.21;43.03;100834.38;5027091;27;96818;-67
2022/09/09 10:43:10;;;;;;;3.95;1.08;;;;;;;26.68;41.83;100839.59;5021267;27;99012;-67
2022/09/09 10:45:48;;;;;;;3.50;0.65;;;;;;;26.80;41.61;100833.78;5026680;27;100932;-68
2022/09/09 10:48:31;;;;;;;3.25;1.10;;;;;;;26.25;41.66;100835.81;5023587;27;97559;-68
2022/09/09 10:51:11;;;;;;;5.35;1.10;;;;;;;25.72;42.93;100835.66;5025110;27;97014;-68
2022/09/09 10:53:52;;;;;;;2.63;0.60;;;;;;;26.18;42.49;100830.13;5019502;27;99287;-68
2022/09/09 10:56:25;;;;;;;2.33;0.90;;;;;;;25.92;42.61;100831.00;5022096;27;101741;-69
2022/09/09 10:59:02;;;;;;;4.68;0.93;;;;;;;26.12;42.35;100830.69;5020282;27;97339;-68
2022/09/09 11:01:40;;;;;;;39.67;2.60;;;;;;;26.33;42.33;100835.88;5018943;27;98393;-68
2022/09/09 11:04:17;;;;;;;2.33;0.68;;;;;;;26.10;42.13;100826.47;5025574;27;99205;-67
2022/09/09 11:06:53;;;;;;;1.55;0.70;;;;;;;26.22;42.44;100825.25;5022854;27;97719;-67
2022/09/09 11:09:24;;;;;;;2.42;0.80;;;;;;;25.94;42.45;100824.41;5022288;27;99266;-68
2022/09/09 11:11:54;;;;;;;2.65;1.02;;;;;;;26.09;42.49;100822.03;5027475;27;97757;-68
2022/09/09 11:14:31;;;;;;;2.72;0.90;;;;;;;26.31;42.21;100827.06;5022656;27;99059;-67
2022/09/09 11:17:04;;;;;;;4.07;0.80;;;;;;;26.22;42.10;100822.53;5023947;27;99504;-67
2022/09/09 11:19:35;;;;;;;5.40;1.40;;;;;;;26.58;41.86;100824.25;5020607;27;98197;-68
2022/09/09 11:22:05;;;;;;;5.30;1.20;;;;;;;26.96;41.78;100825.81;5025721;27;97311;-68
2022/09/09 11:24:41;;;;;;;2.70;1.20;;;;;;;26.77;42.04;100828.69;5021792;27;99278;-67
2022/09/09 11:27:12;;;;;;;3.25;0.82;;;;;;;26.85;41.85;100830.59;5020483;27;98863;-67
2022/09/09 11:30:07;;;;;;;1.65;0.73;;;;;;;26.78;41.63;100826.84;5020851;27;97536;-68
2022/09/09 11:33:03;;;;;;;4.63;1.00;;;;;;;26.60;41.75;100826.81;5009814;27;99779;-68
2022/09/09 11:35:43;;;;;;;5.65;1.42;;;;;;;26.55;41.64;100815.59;5018388;27;98537;-67
2022/09/09 11:38:19;;;;;;;3.42;0.98;;;;;;;26.81;41.78;100827.34;5023949;27;99134;-68
2022/09/09 11:40:46;;;;;;;;;;;;;;;26.85;40.47;100828.72;5031196;27;96966;-70
2022/09/09 11:43:17;;;;;;;2.78;0.60;;;;;;;26.85;40.22;100833.28;5029762;27;99081;-68